PWSweather.com
Personal Weather Stations
Station Observations
SHAHALMS1
Eftra, Falkenberg, HA

EftraFalkenberg, HA

Lat: 56.85, Lon: 12.65

Elevation: 140

Station Type:

http://hem.passagen.se/risarp101

High Low Average
Temperature 66.2°F19.0°C 53.2°F11.8°C 58.4°F14.7°C
Dew Point 51.9°F11.1°C 44.7°F7.1°C 48.3°F9.1°C
Winds 10.3 mph 16.6 kmh 4.1 mph 6.6 kmh 7.0 mph SE11.3 kmh SE
Wind Gusts 30.8 mph49.6 kmh 7.9 mph12.7 kmh 16.0 mph25.7 kmh
Humidity 79% 57% 70%
Pressure 30.07 in1018.3 mb 29.83 in1010.2 mb -
Precipitation 0.00 in0.0 mm - -
Hour Temp Dew Point Humidity Winds Wind Gusts Pressure Precip Precip Rate Daily Precip Total
12:00 AM 57.2°F14.0°C 49.7°F9.8°C 76% 4.3 mph E6.9 kmh E 8.6 mph13.8 kmh 30.04 in1017.3 mb 0.00 in0.0 mm 0.00 in0.0 mm 0.00 in0.0 mm
12:15 AM 56.8°F13.8°C 49.7°F9.8°C 77% 4.1 mph E6.6 kmh E 7.9 mph12.7 kmh 30.04 in1017.3 mb 0.00 in0.0 mm 0.00 in0.0 mm 0.00 in0.0 mm
12:30 AM 56.7°F13.7°C 49.5°F9.7°C 77% 5.3 mph E8.5 kmh E 10.0 mph16.1 kmh 30.04 in1017.3 mb 0.00 in0.0 mm 0.00 in0.0 mm 0.00 in0.0 mm
12:45 AM 56.5°F13.6°C 49.4°F9.7°C 77% 5.9 mph E9.5 kmh E 12.2 mph19.6 kmh 30.04 in1017.3 mb 0.00 in0.0 mm 0.00 in0.0 mm 0.00 in0.0 mm
01:00 AM 56.3°F13.5°C 49.5°F9.7°C 78% 6.3 mph E10.1 kmh E 11.8 mph19.0 kmh 30.04 in1017.3 mb 0.00 in0.0 mm 0.00 in0.0 mm 0.00 in0.0 mm
01:15 AM 56.3°F13.5°C 49.5°F9.7°C 78% 5.8 mph E9.3 kmh E 10.4 mph16.7 kmh 30.07 in1018.3 mb 0.00 in0.0 mm 0.00 in0.0 mm 0.00 in0.0 mm
01:30 AM 56.1°F13.4°C 49.4°F9.7°C 78% 7.4 mph ESE11.9 kmh ESE 12.9 mph20.8 kmh 30.04 in1017.3 mb 0.00 in0.0 mm 0.00 in0.0 mm 0.00 in0.0 mm
01:45 AM 55.9°F13.3°C 49.2°F9.6°C 78% 7.8 mph E12.6 kmh E 14.3 mph23.0 kmh 30.04 in1017.3 mb 0.00 in0.0 mm 0.00 in0.0 mm 0.00 in0.0 mm
02:00 AM 55.9°F13.3°C 49.2°F9.6°C 78% 7.3 mph E11.7 kmh E 14.0 mph22.5 kmh 30.04 in1017.3 mb 0.00 in0.0 mm 0.00 in0.0 mm 0.00 in0.0 mm
02:15 AM 55.8°F13.2°C 49.0°F9.4°C 78% 7.4 mph ESE11.9 kmh ESE 13.6 mph21.9 kmh 30.04 in1017.3 mb 0.00 in0.0 mm 0.00 in0.0 mm 0.00 in0.0 mm
02:30 AM 55.9°F13.3°C 49.2°F9.6°C 78% 7.9 mph ESE12.7 kmh ESE 13.6 mph21.9 kmh 30.01 in1016.3 mb 0.00 in0.0 mm 0.00 in0.0 mm 0.00 in0.0 mm
02:45 AM 55.9°F13.3°C 49.2°F9.6°C 78% 8.2 mph E13.2 kmh E 15.4 mph24.8 kmh 30.01 in1016.3 mb 0.00 in0.0 mm 0.00 in0.0 mm 0.00 in0.0 mm
03:00 AM 55.8°F13.2°C 49.0°F9.4°C 78% 7.3 mph E11.7 kmh E 12.5 mph20.1 kmh 29.98 in1015.2 mb 0.00 in0.0 mm 0.00 in0.0 mm 0.00 in0.0 mm
03:15 AM 55.4°F13.0°C 48.7°F9.3°C 78% 7.4 mph E11.9 kmh E 15.7 mph25.3 kmh 29.98 in1015.2 mb 0.00 in0.0 mm 0.00 in0.0 mm 0.00 in0.0 mm
03:30 AM 55.2°F12.9°C 48.5°F9.2°C 78% 6.9 mph E11.1 kmh E 12.5 mph20.1 kmh 29.98 in1015.2 mb 0.00 in0.0 mm 0.00 in0.0 mm 0.00 in0.0 mm
03:45 AM 54.9°F12.7°C 48.1°F8.9°C 78% 7.4 mph ESE11.9 kmh ESE 14.3 mph23.0 kmh 29.98 in1015.2 mb 0.00 in0.0 mm 0.00 in0.0 mm 0.00 in0.0 mm
04:00 AM 54.7°F12.6°C 48.0°F8.9°C 78% 7.6 mph E12.2 kmh E 14.3 mph23.0 kmh 29.98 in1015.2 mb 0.00 in0.0 mm 0.00 in0.0 mm 0.00 in0.0 mm
04:15 AM 54.3°F12.4°C 47.6°F8.7°C 78% 6.9 mph E11.1 kmh E 10.7 mph17.2 kmh 29.95 in1014.2 mb 0.00 in0.0 mm 0.00 in0.0 mm 0.00 in0.0 mm
04:30 AM 54.1°F12.3°C 47.4°F8.6°C 78% 6.6 mph E10.6 kmh E 12.5 mph20.1 kmh 29.98 in1015.2 mb 0.00 in0.0 mm 0.00 in0.0 mm 0.00 in0.0 mm
04:45 AM 54.1°F12.3°C 47.8°F8.8°C 79% 7.9 mph ESE12.7 kmh ESE 14.0 mph22.5 kmh 30.01 in1016.3 mb 0.00 in0.0 mm 0.00 in0.0 mm 0.00 in0.0 mm
05:00 AM 54.5°F12.5°C 48.1°F8.9°C 79% 10.1 mph ESE16.3 kmh ESE 19.3 mph31.1 kmh 29.98 in1015.2 mb 0.00 in0.0 mm 0.00 in0.0 mm 0.00 in0.0 mm
05:15 AM 54.5°F12.5°C 47.8°F8.8°C 78% 9.8 mph ESE15.8 kmh ESE 19.7 mph31.7 kmh 29.98 in1015.2 mb 0.00 in0.0 mm 0.00 in0.0 mm 0.00 in0.0 mm
05:30 AM 54.1°F12.3°C 47.4°F8.6°C 78% 9.0 mph E14.5 kmh E 16.1 mph25.9 kmh 29.95 in1014.2 mb 0.00 in0.0 mm 0.00 in0.0 mm 0.00 in0.0 mm
05:45 AM 53.8°F12.1°C 47.1°F8.4°C 78% 8.5 mph ESE13.7 kmh ESE 14.0 mph22.5 kmh 29.95 in1014.2 mb 0.00 in0.0 mm 0.00 in0.0 mm 0.00 in0.0 mm
06:00 AM 53.6°F12.0°C 46.9°F8.3°C 78% 9.9 mph E15.9 kmh E 17.2 mph27.7 kmh 29.95 in1014.2 mb 0.00 in0.0 mm 0.00 in0.0 mm 0.00 in0.0 mm
06:15 AM 53.4°F11.9°C 46.7°F8.2°C 78% 8.2 mph E13.2 kmh E 15.4 mph24.8 kmh 29.95 in1014.2 mb 0.00 in0.0 mm 0.00 in0.0 mm 0.00 in0.0 mm
06:30 AM 53.2°F11.8°C 46.9°F8.3°C 79% 7.8 mph E12.6 kmh E 15.0 mph24.1 kmh 29.92 in1013.2 mb 0.00 in0.0 mm 0.00 in0.0 mm 0.00 in0.0 mm
06:45 AM 53.4°F11.9°C 47.1°F8.4°C 79% 8.0 mph ESE12.9 kmh ESE 14.0 mph22.5 kmh 29.92 in1013.2 mb 0.00 in0.0 mm 0.00 in0.0 mm 0.00 in0.0 mm
07:00 AM 53.6°F12.0°C 47.2°F8.4°C 79% 8.3 mph ESE13.4 kmh ESE 16.8 mph27.0 kmh 29.92 in1013.2 mb 0.00 in0.0 mm 0.00 in0.0 mm 0.00 in0.0 mm
07:15 AM 54.0°F12.2°C 47.6°F8.7°C 79% 8.4 mph E13.5 kmh E 16.5 mph26.6 kmh 29.92 in1013.2 mb 0.00 in0.0 mm 0.00 in0.0 mm 0.00 in0.0 mm
07:30 AM 54.7°F12.6°C 48.3°F9.1°C 79% 10.3 mph SE16.6 kmh SE 21.1 mph34.0 kmh 29.92 in1013.2 mb 0.00 in0.0 mm 0.00 in0.0 mm 0.00 in0.0 mm
07:45 AM 55.0°F12.8°C 48.3°F9.1°C 78% 9.4 mph ESE15.1 kmh ESE 20.0 mph32.2 kmh 29.92 in1013.2 mb 0.00 in0.0 mm 0.00 in0.0 mm 0.00 in0.0 mm
08:00 AM 55.4°F13.0°C 48.7°F9.3°C 78% 9.0 mph ESE14.5 kmh ESE 19.7 mph31.7 kmh 29.89 in1012.2 mb 0.00 in0.0 mm 0.00 in0.0 mm 0.00 in0.0 mm
08:15 AM 55.8°F13.2°C 48.7°F9.3°C 77% 8.2 mph SE13.2 kmh SE 19.7 mph31.7 kmh 29.92 in1013.2 mb 0.00 in0.0 mm 0.00 in0.0 mm 0.00 in0.0 mm
08:30 AM 56.3°F13.5°C 49.2°F9.6°C 77% 8.4 mph ESE13.5 kmh ESE 17.2 mph27.7 kmh 29.92 in1013.2 mb 0.00 in0.0 mm 0.00 in0.0 mm 0.00 in0.0 mm
08:45 AM 56.7°F13.7°C 49.2°F9.6°C 76% 8.8 mph SE14.2 kmh SE 20.8 mph33.5 kmh 29.92 in1013.2 mb 0.00 in0.0 mm 0.00 in0.0 mm 0.00 in0.0 mm
09:00 AM 57.2°F14.0°C 49.3°F9.6°C 75% 7.7 mph ESE12.4 kmh ESE 20.8 mph33.5 kmh 29.92 in1013.2 mb 0.00 in0.0 mm 0.00 in0.0 mm 0.00 in0.0 mm
09:15 AM 57.7°F14.3°C 49.9°F9.9°C 75% 7.8 mph ESE12.6 kmh ESE 17.2 mph27.7 kmh 29.89 in1012.2 mb 0.00 in0.0 mm 0.00 in0.0 mm 0.00 in0.0 mm
09:30 AM 58.5°F14.7°C 50.2°F10.1°C 74% 7.0 mph ESE11.3 kmh ESE 14.0 mph22.5 kmh 29.89 in1012.2 mb 0.00 in0.0 mm 0.00 in0.0 mm 0.00 in0.0 mm
09:45 AM 59.0°F15.0°C 50.7°F10.4°C 74% 6.4 mph SE10.3 kmh SE 13.6 mph21.9 kmh 29.89 in1012.2 mb 0.00 in0.0 mm 0.00 in0.0 mm 0.00 in0.0 mm
10:00 AM 59.7°F15.4°C 51.0°F10.6°C 73% 6.3 mph SE10.1 kmh SE 16.8 mph27.0 kmh 29.92 in1013.2 mb 0.00 in0.0 mm 0.00 in0.0 mm 0.00 in0.0 mm
10:15 AM 60.3°F15.7°C 51.2°F10.7°C 72% 6.0 mph ESE9.7 kmh ESE 15.0 mph24.1 kmh 29.89 in1012.2 mb 0.00 in0.0 mm 0.00 in0.0 mm 0.00 in0.0 mm
10:30 AM 60.8°F16.0°C 51.3°F10.7°C 71% 6.5 mph ESE10.5 kmh ESE 15.4 mph24.8 kmh 29.89 in1012.2 mb 0.00 in0.0 mm 0.00 in0.0 mm 0.00 in0.0 mm
10:46 AM 61.3°F16.3°C 51.1°F10.6°C 69% 5.9 mph ESE9.5 kmh ESE 12.2 mph19.6 kmh 29.92 in1013.2 mb 0.00 in0.0 mm 0.00 in0.0 mm 0.00 in0.0 mm
11:00 AM 61.9°F16.6°C 51.2°F10.7°C 68% 9.0 mph SE14.5 kmh SE 21.1 mph34.0 kmh 29.92 in1013.2 mb 0.00 in0.0 mm 0.00 in0.0 mm 0.00 in0.0 mm
11:15 AM 62.2°F16.8°C 50.7°F10.4°C 66% 9.8 mph ESE15.8 kmh ESE 22.9 mph36.9 kmh 29.92 in1013.2 mb 0.00 in0.0 mm 0.00 in0.0 mm 0.00 in0.0 mm
11:30 AM 62.8°F17.1°C 51.2°F10.7°C 66% 6.2 mph ESE10.0 kmh ESE 16.8 mph27.0 kmh 29.92 in1013.2 mb 0.00 in0.0 mm 0.00 in0.0 mm 0.00 in0.0 mm
11:45 AM 63.1°F17.3°C 51.2°F10.7°C 65% 8.3 mph ESE13.4 kmh ESE 20.8 mph33.5 kmh 29.92 in1013.2 mb 0.00 in0.0 mm 0.00 in0.0 mm 0.00 in0.0 mm
12:00 PM 63.9°F17.7°C 51.4°F10.8°C 64% 7.4 mph SE11.9 kmh SE 15.0 mph24.1 kmh 29.92 in1013.2 mb 0.00 in0.0 mm 0.00 in0.0 mm 0.00 in0.0 mm
12:15 PM 64.2°F17.9°C 50.9°F10.5°C 62% 8.6 mph SSE13.8 kmh SSE 30.8 mph49.6 kmh 29.92 in1013.2 mb 0.00 in0.0 mm 0.00 in0.0 mm 0.00 in0.0 mm
12:30 PM 64.6°F18.1°C 51.3°F10.7°C 62% 7.2 mph SE11.6 kmh SE 16.8 mph27.0 kmh 29.89 in1012.2 mb 0.00 in0.0 mm 0.00 in0.0 mm 0.00 in0.0 mm
12:45 PM 65.1°F18.4°C 51.8°F11.0°C 62% 5.9 mph SE9.5 kmh SE 15.4 mph24.8 kmh 29.89 in1012.2 mb 0.00 in0.0 mm 0.00 in0.0 mm 0.00 in0.0 mm
01:00 PM 65.3°F18.5°C 51.9°F11.1°C 62% 7.3 mph SE11.7 kmh SE 15.4 mph24.8 kmh 29.89 in1012.2 mb 0.00 in0.0 mm 0.00 in0.0 mm 0.00 in0.0 mm
01:15 PM 65.5°F18.6°C 51.7°F10.9°C 61% 5.8 mph SE9.3 kmh SE 16.5 mph26.6 kmh 29.89 in1012.2 mb 0.00 in0.0 mm 0.00 in0.0 mm 0.00 in0.0 mm
01:30 PM 65.8°F18.8°C 51.6°F10.9°C 60% 5.9 mph SSE9.5 kmh SSE 12.2 mph19.6 kmh 29.86 in1011.2 mb 0.00 in0.0 mm 0.00 in0.0 mm 0.00 in0.0 mm
01:45 PM 66.2°F19.0°C 51.4°F10.8°C 59% 7.0 mph SSE11.3 kmh SSE 19.7 mph31.7 kmh 29.86 in1011.2 mb 0.00 in0.0 mm 0.00 in0.0 mm 0.00 in0.0 mm
02:00 PM 66.0°F18.9°C 51.3°F10.7°C 59% 6.8 mph SSE10.9 kmh SSE 13.6 mph21.9 kmh 29.86 in1011.2 mb 0.00 in0.0 mm 0.00 in0.0 mm 0.00 in0.0 mm
02:15 PM 66.0°F18.9°C 51.3°F10.7°C 59% 6.0 mph SE9.7 kmh SE 16.5 mph26.6 kmh 29.83 in1010.2 mb 0.00 in0.0 mm 0.00 in0.0 mm 0.00 in0.0 mm
02:30 PM 65.8°F18.8°C 51.1°F10.6°C 59% 6.2 mph SE10.0 kmh SE 20.4 mph32.8 kmh 29.86 in1011.2 mb 0.00 in0.0 mm 0.00 in0.0 mm 0.00 in0.0 mm
02:45 PM 65.7°F18.7°C 50.9°F10.5°C 59% 6.4 mph SSE10.3 kmh SSE 15.4 mph24.8 kmh 29.83 in1010.2 mb 0.00 in0.0 mm 0.00 in0.0 mm 0.00 in0.0 mm
03:00 PM 65.3°F18.5°C 50.1°F10.1°C 58% 8.9 mph SE14.3 kmh SE 20.0 mph32.2 kmh 29.86 in1011.2 mb 0.00 in0.0 mm 0.00 in0.0 mm 0.00 in0.0 mm
03:15 PM 64.8°F18.2°C 49.2°F9.6°C 57% 6.5 mph SE10.5 kmh SE 17.2 mph27.7 kmh 29.86 in1011.2 mb 0.00 in0.0 mm 0.00 in0.0 mm 0.00 in0.0 mm
03:30 PM 64.2°F17.9°C 48.7°F9.3°C 57% 7.3 mph SE11.7 kmh SE 18.3 mph29.5 kmh 29.86 in1011.2 mb 0.00 in0.0 mm 0.00 in0.0 mm 0.00 in0.0 mm
03:45 PM 63.9°F17.7°C 48.3°F9.1°C 57% 5.9 mph SSE9.5 kmh SSE 13.6 mph21.9 kmh 29.86 in1011.2 mb 0.00 in0.0 mm 0.00 in0.0 mm 0.00 in0.0 mm
04:00 PM 63.3°F17.4°C 47.8°F8.8°C 57% 5.1 mph SSE8.2 kmh SSE 13.6 mph21.9 kmh 29.86 in1011.2 mb 0.00 in0.0 mm 0.00 in0.0 mm 0.00 in0.0 mm
04:15 PM 62.8°F17.1°C 47.3°F8.5°C 57% 5.5 mph SSE8.9 kmh SSE 15.4 mph24.8 kmh 29.83 in1010.2 mb 0.00 in0.0 mm 0.00 in0.0 mm 0.00 in0.0 mm
04:30 PM 62.2°F16.8°C 47.3°F8.5°C 58% 5.6 mph SSE9.0 kmh SSE 20.0 mph32.2 kmh 29.83 in1010.2 mb 0.00 in0.0 mm 0.00 in0.0 mm 0.00 in0.0 mm
04:45 PM 61.7°F16.5°C 47.2°F8.4°C 59% 6.8 mph SSE10.9 kmh SSE 14.0 mph22.5 kmh 29.83 in1010.2 mb 0.00 in0.0 mm 0.00 in0.0 mm 0.00 in0.0 mm
05:00 PM 61.2°F16.2°C 46.7°F8.2°C 59% 8.2 mph SE13.2 kmh SE 16.5 mph26.6 kmh 29.83 in1010.2 mb 0.00 in0.0 mm 0.00 in0.0 mm 0.00 in0.0 mm
05:15 PM 60.4°F15.8°C 46.0°F7.8°C 59% 7.2 mph SE11.6 kmh SE 17.2 mph27.7 kmh 29.83 in1010.2 mb 0.00 in0.0 mm 0.00 in0.0 mm 0.00 in0.0 mm
05:30 PM 59.9°F15.5°C 46.0°F7.8°C 60% 6.8 mph SSE10.9 kmh SSE 24.7 mph39.8 kmh 29.83 in1010.2 mb 0.00 in0.0 mm 0.00 in0.0 mm 0.00 in0.0 mm
05:45 PM 59.5°F15.3°C 46.1°F7.8°C 61% 7.7 mph SE12.4 kmh SE 17.2 mph27.7 kmh 29.83 in1010.2 mb 0.00 in0.0 mm 0.00 in0.0 mm 0.00 in0.0 mm
06:00 PM 59.0°F15.0°C 45.6°F7.6°C 61% 6.2 mph SE10.0 kmh SE 15.0 mph24.1 kmh 29.83 in1010.2 mb 0.00 in0.0 mm 0.00 in0.0 mm 0.00 in0.0 mm
06:15 PM 58.8°F14.9°C 45.4°F7.4°C 61% 7.4 mph SE11.9 kmh SE 15.4 mph24.8 kmh 29.83 in1010.2 mb 0.00 in0.0 mm 0.00 in0.0 mm 0.00 in0.0 mm
06:30 PM 58.5°F14.7°C 45.5°F7.5°C 62% 7.0 mph SE11.3 kmh SE 15.7 mph25.3 kmh 29.83 in1010.2 mb 0.00 in0.0 mm 0.00 in0.0 mm 0.00 in0.0 mm
06:47 PM 57.9°F14.4°C 45.4°F7.4°C 63% 7.2 mph SE11.6 kmh SE 16.8 mph27.0 kmh 29.83 in1010.2 mb 0.00 in0.0 mm 0.00 in0.0 mm 0.00 in0.0 mm
07:00 PM 57.7°F14.3°C 45.2°F7.3°C 63% 7.6 mph SE12.2 kmh SE 14.0 mph22.5 kmh 29.83 in1010.2 mb 0.00 in0.0 mm 0.00 in0.0 mm 0.00 in0.0 mm
07:15 PM 57.4°F14.1°C 45.3°F7.4°C 64% 6.7 mph ESE10.8 kmh ESE 16.8 mph27.0 kmh 29.83 in1010.2 mb 0.00 in0.0 mm 0.00 in0.0 mm 0.00 in0.0 mm
07:30 PM 57.2°F14.0°C 45.5°F7.5°C 65% 6.3 mph SE10.1 kmh SE 15.0 mph24.1 kmh 29.83 in1010.2 mb 0.00 in0.0 mm 0.00 in0.0 mm 0.00 in0.0 mm
07:45 PM 56.8°F13.8°C 45.2°F7.3°C 65% 6.6 mph ESE10.6 kmh ESE 16.8 mph27.0 kmh 29.83 in1010.2 mb 0.00 in0.0 mm 0.00 in0.0 mm 0.00 in0.0 mm
08:00 PM 55.9°F13.3°C 44.7°F7.1°C 66% 6.0 mph E9.7 kmh E 12.9 mph20.8 kmh 29.83 in1010.2 mb 0.00 in0.0 mm 0.00 in0.0 mm 0.00 in0.0 mm
08:15 PM 55.2°F12.9°C 44.8°F7.1°C 68% 6.1 mph E9.8 kmh E 14.0 mph22.5 kmh 29.83 in1010.2 mb 0.00 in0.0 mm 0.00 in0.0 mm 0.00 in0.0 mm
08:30 PM 54.7°F12.6°C 44.7°F7.1°C 69% 6.6 mph E10.6 kmh E 14.0 mph22.5 kmh 29.83 in1010.2 mb 0.00 in0.0 mm 0.00 in0.0 mm 0.00 in0.0 mm
08:45 PM 54.5°F12.5°C 44.9°F7.2°C 70% 6.2 mph E10.0 kmh E 11.5 mph18.5 kmh 29.83 in1010.2 mb 0.00 in0.0 mm 0.00 in0.0 mm 0.00 in0.0 mm
09:00 PM 54.0°F12.2°C 44.8°F7.1°C 71% 5.4 mph E8.7 kmh E 11.8 mph19.0 kmh 29.83 in1010.2 mb 0.00 in0.0 mm 0.00 in0.0 mm 0.00 in0.0 mm
09:15 PM 54.0°F12.2°C 45.1°F7.3°C 72% 5.7 mph E9.2 kmh E 10.0 mph16.1 kmh 29.83 in1010.2 mb 0.00 in0.0 mm 0.00 in0.0 mm 0.00 in0.0 mm
09:30 PM 54.0°F12.2°C 45.5°F7.5°C 73% 6.0 mph E9.7 kmh E 11.5 mph18.5 kmh 29.83 in1010.2 mb 0.00 in0.0 mm 0.00 in0.0 mm 0.00 in0.0 mm
09:45 PM 54.5°F12.5°C 46.0°F7.8°C 73% 5.9 mph ESE9.5 kmh ESE 13.6 mph21.9 kmh 29.83 in1010.2 mb 0.00 in0.0 mm 0.00 in0.0 mm 0.00 in0.0 mm
10:00 PM 55.6°F13.1°C 47.1°F8.4°C 73% 5.4 mph SE8.7 kmh SE 17.9 mph28.8 kmh 29.83 in1010.2 mb 0.00 in0.0 mm 0.00 in0.0 mm 0.00 in0.0 mm
10:15 PM 55.8°F13.2°C 46.9°F8.3°C 72% 6.1 mph SSE9.8 kmh SSE 13.6 mph21.9 kmh 29.83 in1010.2 mb 0.00 in0.0 mm 0.00 in0.0 mm 0.00 in0.0 mm
10:30 PM 57.0°F13.9°C 47.7°F8.7°C 71% 6.4 mph SSE10.3 kmh SSE 21.1 mph34.0 kmh 29.83 in1010.2 mb 0.00 in0.0 mm 0.00 in0.0 mm 0.00 in0.0 mm
10:45 PM 57.6°F14.2°C 47.5°F8.6°C 69% 7.4 mph SSE11.9 kmh SSE 20.4 mph32.8 kmh 29.83 in1010.2 mb 0.00 in0.0 mm 0.00 in0.0 mm 0.00 in0.0 mm
11:00 PM 57.7°F14.3°C 47.2°F8.4°C 68% 8.3 mph SSE13.4 kmh SSE 16.8 mph27.0 kmh 29.83 in1010.2 mb 0.00 in0.0 mm 0.00 in0.0 mm 0.00 in0.0 mm
11:15 PM 57.9°F14.4°C 47.4°F8.6°C 68% 7.3 mph SSE11.7 kmh SSE 17.5 mph28.2 kmh 29.83 in1010.2 mb 0.00 in0.0 mm 0.00 in0.0 mm 0.00 in0.0 mm
11:30 PM 58.3°F14.6°C 47.4°F8.6°C 67% 6.2 mph SSE10.0 kmh SSE 17.5 mph28.2 kmh 29.83 in1010.2 mb 0.00 in0.0 mm 0.00 in0.0 mm 0.00 in0.0 mm
11:45 PM 58.3°F14.6°C 47.4°F8.6°C 67% 7.4 mph S11.9 kmh S 17.2 mph27.7 kmh 29.83 in1010.2 mb 0.00 in0.0 mm 0.00 in0.0 mm 0.00 in0.0 mm